Time;durP1;ratioP1;P1;durP2;ratioP2;P2;SDS_P1;SDS_P2;PMS_P1;PMS_P2;Temp;Humidity;BMP_temperature;BMP_pressure;BME280_temperature;BME280_humidity;BME280_pressure;Samples;Min_cycle;Max_cycle;Signal;HPM_P1;HPM_P2
2024/04/18 00:01:30;;;;;;;1.20;0.10;;;4.10;99.90;;;;;;5566909;25;20008;-79
2024/04/18 00:03:55;;;;;;;0.03;0.00;;;6.60;99.90;;;;;;5533912;25;19999;-78
2024/04/18 00:06:21;;;;;;;0.10;0.00;;;4.10;99.90;;;;;;5534196;25;19992;-79
2024/04/18 00:08:47;;;;;;;0.43;0.00;;;4.00;99.90;;;;;;5533245;25;20008;-79
2024/04/18 00:11:12;;;;;;;0.08;0.00;;;4.00;99.90;;;;;;5566392;25;20011;-79
2024/04/18 00:13:38;;;;;;;0.30;0.00;;;4.00;99.90;;;;;;5567367;25;20004;-78
2024/04/18 00:16:04;;;;;;;0.63;0.22;;;4.00;99.90;;;;;;5566735;25;20001;-79
2024/04/18 00:18:29;;;;;;;0.47;0.00;;;3.80;99.90;;;;;;5533138;25;20000;-78
2024/04/18 00:20:55;;;;;;;0.35;0.00;;;5.20;99.90;;;;;;5533504;25;19997;-78
2024/04/18 00:23:21;;;;;;;2.45;0.47;;;3.80;99.90;;;;;;5533994;25;20060;-79
2024/04/18 00:25:46;;;;;;;0.10;0.00;;;3.70;99.90;;;;;;5567665;25;20004;-78
2024/04/18 00:28:12;;;;;;;0.20;0.00;;;3.60;99.90;;;;;;5535113;25;20013;-78
2024/04/18 00:30:41;;;;;;;0.30;0.00;;;3.70;99.90;;;;;;5567127;25;20515;-79
2024/04/18 00:33:07;;;;;;;0.35;0.00;;;4.30;99.90;;;;;;5567004;25;20005;-78
2024/04/18 00:35:33;;;;;;;11.38;0.68;;;3.50;99.90;;;;;;5565710;25;20452;-78
2024/04/18 00:37:58;;;;;;;2.17;0.10;;;3.50;99.90;;;;;;5566753;25;20000;-77
2024/04/18 00:40:24;;;;;;;0.20;0.00;;;3.50;99.90;;;;;;5534210;25;20456;-77
2024/04/18 00:42:49;;;;;;;0.57;0.00;;;3.50;99.90;;;;;;5534265;25;20000;-78
2024/04/18 00:45:16;;;;;;;1.48;0.10;;;3.50;99.90;;;;;;5565370;25;20008;-78
2024/04/18 00:47:42;;;;;;;0.40;0.03;;;;;;;;;;5565396;25;20000;-78
2024/04/18 00:50:10;;;;;;;0.70;0.00;;;3.40;99.90;;;;;;5533814;25;19989;-78
2024/04/18 00:52:35;;;;;;;0.43;0.10;;;3.40;99.90;;;;;;5564728;25;20056;-77
2024/04/18 00:55:03;;;;;;;0.60;0.00;;;3.30;99.90;;;;;;5534263;25;20001;-78
2024/04/18 00:57:29;;;;;;;0.10;0.00;;;3.30;99.90;;;;;;5566971;25;20025;-78
2024/04/18 00:59:56;;;;;;;1.42;0.00;;;3.30;99.90;;;;;;5534106;25;20007;-78
2024/04/18 01:02:23;;;;;;;0.55;0.20;;;3.30;99.90;;;;;;5567370;25;20080;-78
2024/04/18 01:04:49;;;;;;;0.30;0.00;;;3.20;99.90;;;;;;5534765;25;20010;-78
2024/04/18 01:07:15;;;;;;;0.57;0.22;;;3.20;99.90;;;;;;5567056;25;20000;-78
2024/04/18 01:09:41;;;;;;;0.85;0.30;;;3.20;99.90;;;;;;5534566;25;20444;-78
2024/04/18 01:12:06;;;;;;;0.10;0.00;;;3.10;99.90;;;;;;5567726;25;19996;-78
2024/04/18 01:14:32;;;;;;;1.45;0.00;;;3.10;99.90;;;;;;5567601;25;20068;-78
2024/04/18 01:16:58;;;;;;;1.02;0.10;;;3.10;99.90;;;;;;5533342;25;19993;-78
2024/04/18 01:19:24;;;;;;;0.77;0.00;;;3.10;99.90;;;;;;5567694;25;20459;-78
2024/04/18 01:21:50;;;;;;;0.22;0.00;;;3.10;99.90;;;;;;5534268;25;19993;-78
2024/04/18 01:24:16;;;;;;;0.28;0.00;;;3.00;99.90;;;;;;5566570;25;19996;-78
2024/04/18 01:26:42;;;;;;;1.02;0.05;;;3.00;99.90;;;;;;5534223;25;20008;-78
2024/04/18 01:29:07;;;;;;;0.95;0.10;;;2.90;99.90;;;;;;5567703;25;19996;-78
2024/04/18 01:31:35;;;;;;;0.30;0.05;;;3.00;99.90;;;;;;5534347;25;20060;-78
2024/04/18 01:34:01;;;;;;;0.03;0.00;;;2.90;99.90;;;;;;5567621;25;20064;-78
2024/04/18 01:36:27;;;;;;;0.77;0.03;;;2.90;99.90;;;;;;5567583;25;20000;-78
2024/04/18 01:38:52;;;;;;;0.50;0.00;;;2.90;99.90;;;;;;5567999;25;20005;-78
2024/04/18 01:41:20;;;;;;;1.08;0.10;;;2.80;99.90;;;;;;5566798;25;20524;-78
2024/04/18 01:43:46;;;;;;;0.10;0.00;;;2.80;99.90;;;;;;5566431;25;19996;-78
2024/04/18 01:46:12;;;;;;;0.45;0.00;;;2.80;99.90;;;;;;5566982;25;20003;-78
2024/04/18 01:48:38;;;;;;;1.58;0.00;;;2.90;99.90;;;;;;5534545;25;20368;-77
2024/04/18 01:51:04;;;;;;;2.15;0.00;;;2.90;99.90;;;;;;5567273;25;20005;-78
2024/04/18 01:53:30;;;;;;;0.40;0.00;;;2.90;99.90;;;;;;5567134;25;19993;-78
2024/04/18 01:55:56;;;;;;;0.38;0.00;;;2.80;99.90;;;;;;5566368;25;19997;-78
2024/04/18 01:58:22;;;;;;;1.33;0.05;;;2.80;99.90;;;;;;5532155;25;20007;-78
2024/04/18 02:00:47;;;;;;;0.63;0.20;;;2.80;99.90;;;;;;5534072;25;20004;-78
2024/04/18 02:03:13;;;;;;;0.10;0.00;;;2.70;99.90;;;;;;5533062;25;20007;-78
2024/04/18 02:05:39;;;;;;;0.40;0.15;;;2.70;99.90;;;;;;5533319;25;20164;-78
2024/04/18 02:08:05;;;;;;;0.73;0.15;;;2.70;99.90;;;;;;5566419;25;19992;-78
2024/04/18 02:10:30;;;;;;;0.20;0.00;;;2.60;99.90;;;;;;5533551;25;19997;-78
2024/04/18 02:12:56;;;;;;;1.35;0.00;;;2.60;99.90;;;;;;5533671;25;19996;-78
2024/04/18 02:15:28;;;;;;;0.30;0.00;;;2.60;99.90;;;;;;5566608;25;19993;-78
2024/04/18 02:17:53;;;;;;;2.65;0.45;;;2.60;99.90;;;;;;5564589;25;19996;-78
2024/04/18 02:20:20;;;;;;;0.57;0.00;;;2.60;99.90;;;;;;5533302;25;20458;-78
2024/04/18 02:22:45;;;;;;;0.50;0.00;;;2.50;99.90;;;;;;5533974;25;20020;-78
2024/04/18 02:25:12;;;;;;;0.47;0.17;;;2.50;99.90;;;;;;5532565;25;19989;-78
2024/04/18 02:27:41;;;;;;;0.20;0.10;;;2.50;99.90;;;;;;5565906;25;20003;-78
2024/04/18 02:30:09;;;;;;;0.43;0.00;;;2.50;99.90;;;;;;5566203;25;19997;-78
2024/04/18 02:32:35;;;;;;;0.32;0.10;;;2.40;99.90;;;;;;5566789;25;20088;-78
2024/04/18 02:35:01;;;;;;;0.15;0.00;;;2.40;99.90;;;;;;5565773;25;19997;-78
2024/04/18 02:37:27;;;;;;;0.70;0.10;;;2.40;99.90;;;;;;5567148;25;19996;-78
2024/04/18 02:39:53;;;;;;;1.70;0.20;;;2.30;99.90;;;;;;5533298;25;19993;-78
2024/04/18 02:42:18;;;;;;;0.73;0.10;;;2.40;99.90;;;;;;5566440;25;19999;-78
2024/04/18 02:44:45;;;;;;;0.28;0.05;;;3.20;99.90;;;;;;5567028;25;20008;-78
2024/04/18 02:47:10;;;;;;;1.83;0.05;;;2.40;99.90;;;;;;5566426;25;20123;-78
2024/04/18 02:49:39;;;;;;;0.63;0.00;;;2.30;99.90;;;;;;5533584;25;20004;-78
2024/04/18 02:52:04;;;;;;;2.83;0.28;;;2.30;99.90;;;;;;5566215;25;20084;-78
2024/04/18 02:54:30;;;;;;;1.10;0.20;;;2.30;99.90;;;;;;5532981;25;20005;-78
2024/04/18 02:56:56;;;;;;;1.25;0.17;;;2.40;99.90;;;;;;5532847;25;20041;-78
2024/04/18 02:59:22;;;;;;;0.80;0.20;;;2.40;99.90;;;;;;5566324;25;20045;-78
2024/04/18 03:01:51;;;;;;;1.35;0.03;;;2.40;99.90;;;;;;5566211;25;20007;-78
2024/04/18 03:04:16;;;;;;;0.22;0.00;;;2.40;99.90;;;;;;5533373;25;20420;-78
2024/04/18 03:06:45;;;;;;;0.55;0.20;;;2.40;99.90;;;;;;5566487;25;20004;-78
2024/04/18 03:09:14;;;;;;;0.70;0.13;;;2.40;99.90;;;;;;5535024;25;20001;-78
2024/04/18 03:11:40;;;;;;;0.90;0.00;;;2.40;99.90;;;;;;5567954;25;19989;-78
2024/04/18 03:14:05;;;;;;;1.80;0.20;;;2.40;99.90;;;;;;5570074;25;20011;-78
2024/04/18 03:16:32;;;;;;;0.65;0.10;;;2.40;99.90;;;;;;5569091;25;20448;-78
2024/04/18 03:18:59;;;;;;;0.40;0.05;;;2.50;99.90;;;;;;5567545;25;20010;-78
2024/04/18 03:21:25;;;;;;;0.47;0.10;;;2.50;99.90;;;;;;5569958;25;19995;-78
2024/04/18 03:23:50;;;;;;;1.63;0.25;;;2.60;99.90;;;;;;5536872;25;20462;-78
2024/04/18 03:26:16;;;;;;;0.52;0.10;;;2.60;99.90;;;;;;5536877;25;19993;-78
2024/04/18 03:28:42;;;;;;;2.40;0.85;;;2.50;99.90;;;;;;5569735;25;19997;-78
2024/04/18 03:31:08;;;;;;;1.05;0.00;;;2.40;99.90;;;;;;5569893;25;20029;-78
2024/04/18 03:33:33;;;;;;;3.00;0.35;;;2.40;99.90;;;;;;5569606;25;19993;-78
2024/04/18 03:36:06;;;;;;;1.02;0.15;;;2.40;99.90;;;;;;5568681;25;20007;-78
2024/04/18 03:38:31;;;;;;;0.60;0.20;;;2.50;99.90;;;;;;5569006;25;20000;-77
2024/04/18 03:40:58;;;;;;;0.75;0.15;;;2.50;99.90;;;;;;5568975;25;19993;-77
2024/04/18 03:43:24;;;;;;;1.30;0.20;;;2.50;99.90;;;;;;5535717;25;19988;-77
2024/04/18 03:46:00;;;;;;;0.75;0.15;;;2.50;99.90;;;;;;5568052;25;20001;-77
2024/04/18 03:48:26;;;;;;;2.15;0.20;;;2.50;99.90;;;;;;5568337;25;20008;-77
2024/04/18 03:50:51;;;;;;;1.17;0.30;;;2.50;99.90;;;;;;5569276;25;20012;-78
2024/04/18 03:53:17;;;;;;;0.93;0.20;;;2.50;99.90;;;;;;5568948;25;19997;-78
2024/04/18 03:55:43;;;;;;;0.50;0.17;;;2.50;99.90;;;;;;5567578;25;20464;-78
2024/04/18 03:58:08;;;;;;;16.63;0.65;;;2.50;99.90;;;;;;5569039;25;19996;-78
2024/04/18 04:00:34;;;;;;;0.82;0.35;;;2.40;99.90;;;;;;5569505;25;20440;-78
2024/04/18 04:02:59;;;;;;;1.35;0.30;;;2.40;99.90;;;;;;5537180;25;19993;-78
2024/04/18 04:05:25;;;;;;;1.20;0.20;;;2.50;99.90;;;;;;5568906;25;19996;-78
2024/04/18 04:07:51;;;;;;;3.53;0.30;;;2.50;99.90;;;;;;5569264;25;19997;-77
2024/04/18 04:10:16;;;;;;;4.05;0.50;;;2.50;99.90;;;;;;5536016;25;20003;-77
2024/04/18 04:12:42;;;;;;;1.13;0.28;;;2.50;99.90;;;;;;5569159;25;20008;-77
2024/04/18 04:15:08;;;;;;;3.13;0.20;;;;;;;;;;5569227;25;19993;-77
2024/04/18 04:17:36;;;;;;;0.55;0.17;;;2.60;99.90;;;;;;5535552;25;20007;-77
2024/04/18 04:20:03;;;;;;;0.70;0.10;;;2.60;99.90;;;;;;5534551;25;20009;-77
2024/04/18 04:22:28;;;;;;;3.08;0.28;;;2.70;99.90;;;;;;5566362;25;19993;-78
2024/04/18 04:24:54;;;;;;;3.03;0.20;;;2.70;99.90;;;;;;5535084;25;20007;-77
2024/04/18 04:27:20;;;;;;;1.02;0.32;;;2.70;99.90;;;;;;5568856;25;20004;-77
2024/04/18 04:29:46;;;;;;;0.70;0.10;;;2.70;99.90;;;;;;5534620;25;20003;-77
2024/04/18 04:32:22;;;;;;;0.93;0.40;;;2.70;99.90;;;;;;5568809;25;20003;-77
2024/04/18 04:34:49;;;;;;;2.10;0.20;;;2.70;99.90;;;;;;5568269;25;19997;-78
2024/04/18 04:37:16;;;;;;;3.60;0.55;;;2.70;99.90;;;;;;5568099;25;20007;-78
2024/04/18 04:39:42;;;;;;;1.20;0.57;;;2.60;99.90;;;;;;5567725;25;20344;-78
2024/04/18 04:42:07;;;;;;;0.75;0.28;;;2.60;99.90;;;;;;5568055;25;20021;-78
2024/04/18 04:44:33;;;;;;;0.95;0.20;;;2.60;99.90;;;;;;5533997;25;19997;-77
2024/04/18 04:46:59;;;;;;;1.38;0.25;;;2.60;99.90;;;;;;5567875;25;20468;-77
2024/04/18 04:49:24;;;;;;;0.60;0.20;;;2.60;99.90;;;;;;5567747;25;19993;-77
2024/04/18 04:51:50;;;;;;;4.18;0.77;;;2.50;99.90;;;;;;5534841;25;19996;-77
2024/04/18 04:54:16;;;;;;;1.00;0.32;;;2.60;99.90;;;;;;5568038;25;20004;-77
2024/04/18 04:56:42;;;;;;;4.57;0.43;;;2.70;99.90;;;;;;5533319;25;19992;-77
2024/04/18 04:59:08;;;;;;;2.00;0.40;;;3.60;99.90;;;;;;5565474;25;19993;-77
2024/04/18 05:01:33;;;;;;;1.98;0.30;;;2.70;99.90;;;;;;5535564;25;20316;-77
2024/04/18 05:03:59;;;;;;;1.23;0.40;;;2.70;99.90;;;;;;5568358;25;20008;-77
2024/04/18 05:06:25;;;;;;;7.88;0.73;;;2.70;99.90;;;;;;5568087;25;20007;-78
2024/04/18 05:08:51;;;;;;;2.40;0.40;;;2.80;99.90;;;;;;5568296;25;19997;-77
2024/04/18 05:11:17;;;;;;;2.55;0.40;;;2.80;99.90;;;;;;5568049;25;19996;-79
2024/04/18 05:13:42;;;;;;;2.63;0.40;;;2.90;99.90;;;;;;5535006;25;19993;-78
2024/04/18 05:16:08;;;;;;;1.83;0.45;;;3.00;99.90;;;;;;5567726;25;19997;-78
2024/04/18 05:18:34;;;;;;;0.82;0.25;;;3.00;99.90;;;;;;5567422;25;20456;-78
2024/04/18 05:20:59;;;;;;;2.15;0.43;;;3.20;99.90;;;;;;5567096;25;19997;-78
2024/04/18 05:23:25;;;;;;;2.75;1.08;;;3.30;99.90;;;;;;5565947;25;20012;-78
2024/04/18 05:25:50;;;;;;;2.85;0.90;;;3.60;99.90;;;;;;5532774;25;20004;-77
2024/04/18 05:28:30;;;;;;;3.78;1.10;;;3.60;99.90;;;;;;5566509;25;20042;-77
2024/04/18 05:31:06;;;;;;;4.35;1.30;;;3.70;99.90;;;;;;5565258;25;20004;-78
2024/04/18 05:33:32;;;;;;;2.72;0.63;;;3.80;99.90;;;;;;5566125;25;20065;-76
2024/04/18 05:35:58;;;;;;;2.80;0.50;;;3.90;99.90;;;;;;5564373;25;20021;-77
2024/04/18 05:38:24;;;;;;;1.80;0.47;;;4.20;99.90;;;;;;5534628;25;20068;-76
2024/04/18 05:40:50;;;;;;;2.42;0.30;;;4.20;99.90;;;;;;5567198;25;19993;-73
2024/04/18 05:43:16;;;;;;;0.75;0.20;;;4.30;99.90;;;;;;5567871;25;20008;-77
2024/04/18 05:45:47;;;;;;;1.55;0.30;;;4.40;99.90;;;;;;5567240;25;20002;-75
2024/04/18 05:48:13;;;;;;;0.52;0.20;;;4.50;99.90;;;;;;5531939;25;20343;-77
2024/04/18 05:50:39;;;;;;;1.02;0.20;;;4.60;99.90;;;;;;5529031;26;20005;-78
2024/04/18 05:53:05;;;;;;;0.90;0.10;;;5.00;99.90;;;;;;5528991;26;20451;-78
2024/04/18 05:55:32;;;;;;;4.07;0.20;;;5.00;99.90;;;;;;5496249;26;20008;-79
2024/04/18 05:57:58;;;;;;;1.08;0.10;;;5.20;99.90;;;;;;5528638;26;20004;-78
2024/04/18 06:00:24;;;;;;;1.38;0.32;;;6.50;99.90;;;;;;5529846;26;20001;-78
2024/04/18 06:02:50;;;;;;;2.40;0.10;;;5.60;99.90;;;;;;5497167;26;20008;-79
2024/04/18 06:05:15;;;;;;;3.15;0.28;;;5.70;99.90;;;;;;5496914;26;19997;-78
2024/04/18 06:07:41;;;;;;;1.95;0.10;;;5.90;99.90;;;;;;5496188;26;20064;-79
2024/04/18 06:10:07;;;;;;;4.32;0.03;;;6.10;99.90;;;;;;5528690;26;19993;-79
2024/04/18 06:12:34;;;;;;;1.38;0.10;;;6.20;99.90;;;;;;5495386;26;19994;-78
2024/04/18 06:15:00;;;;;;;3.25;0.25;;;6.20;99.90;;;;;;5542616;25;20375;-78
2024/04/18 06:17:26;;;;;;;4.30;0.57;;;6.30;99.90;;;;;;5533022;25;20001;-79
2024/04/18 06:19:52;;;;;;;1.33;0.28;;;6.30;99.90;;;;;;5533285;25;19999;-78
2024/04/18 06:22:17;;;;;;;0.95;0.32;;;6.40;99.90;;;;;;5533283;25;20507;-79
2024/04/18 06:24:43;;;;;;;1.55;0.32;;;7.70;99.90;;;;;;5532697;25;19988;-79
2024/04/18 06:27:09;;;;;;;1.40;0.60;;;6.50;99.90;;;;;;5532233;25;19999;-79
2024/04/18 06:29:35;;;;;;;1.48;0.43;;;6.50;99.90;;;;;;5565394;25;20448;-79
2024/04/18 06:32:01;;;;;;;2.40;0.30;;;6.50;99.90;;;;;;5532175;25;19988;-78
2024/04/18 06:34:27;;;;;;;3.15;0.20;;;;;;;;;;5533351;25;19989;-80
2024/04/18 06:36:54;;;;;;;3.75;0.63;;;6.80;99.90;;;;;;5533153;25;19993;-79
2024/04/18 06:39:19;;;;;;;1.75;0.13;;;8.80;99.90;;;;;;5565079;25;19996;-79
2024/04/18 06:41:45;;;;;;;0.80;0.13;;;6.90;99.90;;;;;;5531577;25;19993;-79
2024/04/18 06:44:11;;;;;;;1.75;0.20;;;6.90;99.90;;;;;;5531076;25;19997;-78
2024/04/18 06:46:38;;;;;;;1.58;0.20;;;7.10;99.90;;;;;;5531565;25;19995;-78
2024/04/18 06:49:04;;;;;;;2.08;0.22;;;7.10;99.90;;;;;;5532187;25;19992;-78
2024/04/18 06:51:30;;;;;;;0.75;0.30;;;7.20;99.90;;;;;;5565140;25;19996;-78
2024/04/18 06:53:55;;;;;;;1.55;0.10;;;7.40;99.90;;;;;;5565573;25;19992;-80
2024/04/18 06:56:21;;;;;;;1.63;0.20;;;7.40;99.90;;;;;;5564916;25;20516;-79
2024/04/18 06:58:47;;;;;;;2.85;0.20;;;7.50;99.90;;;;;;5531881;25;20029;-79
2024/04/18 07:01:13;;;;;;;1.88;0.45;;;;;;;;;;5565738;25;20317;-78
2024/04/18 07:03:39;;;;;;;4.75;0.63;;;7.80;99.90;;;;;;5564674;25;20032;-79
2024/04/18 07:06:04;;;;;;;2.50;0.10;;;7.90;99.90;;;;;;5531773;25;20316;-79
2024/04/18 07:08:30;;;;;;;3.00;0.40;;;7.90;99.90;;;;;;5564327;25;20000;-79
2024/04/18 07:10:55;;;;;;;6.28;0.30;;;8.10;99.90;;;;;;5531738;25;20323;-78
2024/04/18 07:13:21;;;;;;;0.77;0.13;;;8.10;99.90;;;;;;5564205;25;19989;-79
2024/04/18 07:15:48;;;;;;;1.75;0.17;;;8.10;99.90;;;;;;5564294;25;20336;-78
2024/04/18 07:18:13;;;;;;;2.70;0.00;;;8.40;99.90;;;;;;5564083;25;20033;-78
2024/04/18 07:20:39;;;;;;;0.47;0.05;;;8.30;99.90;;;;;;5564254;25;19992;-78
2024/04/18 07:23:06;;;;;;;1.45;0.00;;;8.50;99.90;;;;;;5564059;25;20003;-78
2024/04/18 07:25:35;;;;;;;1.15;0.20;;;8.50;99.90;;;;;;5531242;25;19997;-78
2024/04/18 07:28:00;;;;;;;2.10;0.17;;;8.40;99.90;;;;;;5564688;25;20411;-78
2024/04/18 07:30:26;;;;;;;3.03;0.20;;;8.50;99.90;;;;;;5531071;25;20025;-78
2024/04/18 07:32:52;;;;;;;1.95;0.00;;;8.40;99.90;;;;;;5564354;25;20332;-79
2024/04/18 07:35:17;;;;;;;1.38;0.20;;;8.70;99.90;;;;;;5564366;25;20000;-78
2024/04/18 07:37:43;;;;;;;2.95;0.10;;;8.80;99.90;;;;;;5564033;25;20062;-78
2024/04/18 07:40:15;;;;;;;1.08;0.00;;;9.00;99.90;;;;;;5563713;25;20000;-79
2024/04/18 07:42:41;;;;;;;0.10;0.00;;;9.10;99.90;;;;;;5531165;25;19993;-79
2024/04/18 07:45:07;;;;;;;2.08;0.00;;;9.20;99.90;;;;;;5563712;25;19988;-79
2024/04/18 07:47:32;;;;;;;4.07;0.13;;;9.40;99.90;;;;;;5530758;25;20000;-79
2024/04/18 07:49:58;;;;;;;0.50;0.15;;;9.60;99.90;;;;;;5530861;25;19988;-79
2024/04/18 07:52:23;;;;;;;2.15;0.00;;;9.20;99.90;;;;;;5563185;25;19989;-79
2024/04/18 07:54:49;;;;;;;0.90;0.03;;;9.20;99.90;;;;;;5532309;25;19995;-77
2024/04/18 07:57:15;;;;;;;0.98;0.30;;;9.10;99.90;;;;;;5566814;25;19996;-76
2024/04/18 07:59:40;;;;;;;0.57;0.00;;;9.20;99.90;;;;;;5566918;25;19993;-78
2024/04/18 08:02:06;;;;;;;0.52;0.00;;;9.20;99.90;;;;;;5567450;25;19992;-78
2024/04/18 08:04:32;;;;;;;0.00;0.00;;;9.20;99.90;;;;;;5533848;25;20454;-79
2024/04/18 08:06:58;;;;;;;1.35;0.00;;;9.10;99.90;;;;;;5567195;25;19992;-78
2024/04/18 08:09:23;;;;;;;5.32;0.00;;;9.10;99.90;;;;;;5534454;25;20000;-78
2024/04/18 08:11:50;;;;;;;0.20;0.00;;;;;;;;;;5566933;25;20003;-78
2024/04/18 08:14:15;;;;;;;2.05;0.00;;;9.20;99.90;;;;;;5567092;25;19989;-78
2024/04/18 08:16:41;;;;;;;0.80;0.00;;;9.50;99.90;;;;;;5567502;25;19995;-78
2024/04/18 08:19:06;;;;;;;0.63;0.00;;;9.50;99.90;;;;;;5533990;25;20016;-79
2024/04/18 08:21:32;;;;;;;0.90;0.00;;;9.60;99.90;;;;;;5534328;25;20061;-78
2024/04/18 08:24:01;;;;;;;1.13;0.00;;;9.70;99.90;;;;;;5533266;25;19989;-77
2024/04/18 08:26:26;;;;;;;1.20;0.22;;;10.10;99.90;;;;;;5533697;25;20420;-79
2024/04/18 08:28:52;;;;;;;0.40;0.00;;;10.30;99.90;;;;;;5533430;25;19995;-77
2024/04/18 08:31:18;;;;;;;1.90;0.00;;;10.50;99.90;;;;;;5566237;25;19997;-78
2024/04/18 08:33:43;;;;;;;0.57;0.00;;;10.70;99.90;;;;;;5533846;25;19996;-78
2024/04/18 08:36:09;;;;;;;1.63;0.00;;;10.90;99.90;;;;;;5566761;25;20003;-77
2024/04/18 08:38:34;;;;;;;1.20;0.10;;;10.90;99.90;;;;;;5566256;25;20055;-76
2024/04/18 08:41:03;;;;;;;1.63;0.00;;;10.90;99.90;;;;;;5566688;25;19989;-76
2024/04/18 08:43:29;;;;;;;0.00;0.00;;;11.00;99.90;;;;;;5533981;25;20030;-78
2024/04/18 08:45:56;;;;;;;1.17;0.00;;;11.00;99.90;;;;;;5566840;25;20001;-77
2024/04/18 08:48:26;;;;;;;0.55;0.10;;;11.10;99.90;;;;;;5567080;25;20060;-79
2024/04/18 08:50:52;;;;;;;2.72;0.10;;;11.20;99.90;;;;;;5566736;25;19992;-76
2024/04/18 08:53:17;;;;;;;1.55;0.00;;;9.80;99.90;;;;;;5533195;25;20440;-76
2024/04/18 08:55:49;;;;;;;0.20;0.00;;;11.40;99.90;;;;;;5566102;25;20007;-77
2024/04/18 08:58:15;;;;;;;2.17;0.10;;;11.50;99.90;;;;;;5566445;25;20012;-77
2024/04/18 09:00:43;;;;;;;1.02;0.00;;;11.70;99.90;;;;;;5533411;25;19996;-77
2024/04/18 09:03:10;;;;;;;1.40;0.00;;;11.90;99.90;;;;;;5566500;25;20064;-77
2024/04/18 09:05:37;;;;;;;1.15;0.00;;;11.90;99.90;;;;;;5532423;25;19988;-77
2024/04/18 09:08:05;;;;;;;0.88;0.00;;;11.90;99.90;;;;;;5565860;25;19988;-77
2024/04/18 09:10:31;;;;;;;1.95;0.00;;;12.00;99.90;;;;;;5532787;25;20006;-76
2024/04/18 09:12:58;;;;;;;3.78;0.00;;;12.00;99.90;;;;;;5532972;25;19989;-77
2024/04/18 09:15:25;;;;;;;2.40;0.00;;;11.90;99.90;;;;;;5532809;25;20013;-77
2024/04/18 09:18:07;;;;;;;0.40;0.00;;;11.90;99.90;;;;;;5565651;25;19993;-77
2024/04/18 09:20:35;;;;;;;4.07;0.35;;;11.90;99.90;;;;;;5532908;25;19992;-77
2024/04/18 09:23:01;;;;;;;3.10;0.03;;;11.90;99.90;;;;;;5532754;25;19997;-76
2024/04/18 09:25:27;;;;;;;1.27;0.00;;;11.80;99.90;;;;;;5565855;25;20351;-77
2024/04/18 09:27:53;;;;;;;0.57;0.00;;;11.50;99.90;;;;;;5565901;25;19993;-77
2024/04/18 09:30:21;;;;;;;1.55;0.00;;;11.50;99.90;;;;;;5532980;25;19992;-78
2024/04/18 09:32:48;;;;;;;3.10;0.00;;;11.30;99.90;;;;;;5532697;25;19992;-78
2024/04/18 09:35:16;;;;;;;1.00;0.05;;;11.00;99.90;;;;;;5532691;25;20011;-77
2024/04/18 09:37:42;;;;;;;0.10;0.00;;;11.30;99.90;;;;;;5565794;25;20013;-78
2024/04/18 09:40:12;;;;;;;0.75;0.00;;;11.00;99.90;;;;;;5532825;25;20456;-77
2024/04/18 09:43:08;;;;;;;0.95;0.00;;;11.20;99.90;;;;;;5565847;25;20459;-77
2024/04/18 09:46:02;;;;;;;1.67;0.15;;;11.50;99.90;;;;;;5533791;25;20007;-77
2024/04/18 09:48:30;;;;;;;2.35;0.10;;;11.70;99.90;;;;;;5533220;25;19997;-77
2024/04/18 09:50:56;;;;;;;1.23;0.15;;;11.70;99.90;;;;;;5565959;25;20068;-76
2024/04/18 09:53:22;;;;;;;0.55;0.00;;;12.20;99.90;;;;;;5532390;25;20000;-77
2024/04/18 09:55:49;;;;;;;2.42;0.00;;;12.20;99.90;;;;;;5532056;25;20400;-76
2024/04/18 09:58:18;;;;;;;0.57;0.00;;;12.20;99.90;;;;;;5532158;25;20335;-76
2024/04/18 10:00:45;;;;;;;2.53;0.00;;;12.30;99.90;;;;;;5565361;25;19992;-76
2024/04/18 10:03:11;;;;;;;2.08;0.00;;;12.40;99.90;;;;;;5565363;25;20008;-77
2024/04/18 10:05:39;;;;;;;2.17;0.52;;;12.40;99.90;;;;;;5532158;25;19989;-77
2024/04/18 10:08:07;;;;;;;1.13;0.00;;;12.40;99.90;;;;;;5564967;25;19999;-76
2024/04/18 10:10:36;;;;;;;0.30;0.00;;;12.60;99.90;;;;;;5565183;25;20217;-77
2024/04/18 10:13:03;;;;;;;1.67;0.00;;;12.60;99.90;;;;;;5531697;25;20000;-77
2024/04/18 10:15:29;;;;;;;1.02;0.00;;;12.90;99.90;;;;;;5532002;25;20007;-76
2024/04/18 10:17:55;;;;;;;3.03;0.00;;;13.20;99.90;;;;;;5563395;25;19992;-76
2024/04/18 10:20:27;;;;;;;0.77;0.00;;;13.60;99.90;;;;;;5564812;25;19997;-76
2024/04/18 10:23:00;;;;;;;0.50;0.00;;;13.80;99.90;;;;;;5532596;25;20005;-76
2024/04/18 10:25:26;;;;;;;5.03;0.05;;;14.00;99.90;;;;;;5531629;25;19997;-76
2024/04/18 10:27:52;;;;;;;1.63;0.00;;;13.90;99.40;;;;;;5564461;25;20370;-76
2024/04/18 10:30:17;;;;;;;2.60;0.28;;;14.20;98.80;;;;;;5531032;25;20005;-77
2024/04/18 10:32:45;;;;;;;1.23;0.00;;;14.10;99.70;;;;;;5531306;25;20007;-76
2024/04/18 10:35:13;;;;;;;3.15;0.00;;;14.30;99.90;;;;;;5531425;25;19992;-76
2024/04/18 10:37:49;;;;;;;1.83;0.00;;;14.40;99.90;;;;;;5564486;25;20004;-76
2024/04/18 10:40:15;;;;;;;6.03;0.00;;;14.30;99.90;;;;;;5564627;25;20003;-76
2024/04/18 10:42:41;;;;;;;4.03;0.20;;;14.10;99.90;;;;;;5531568;25;20324;-77
2024/04/18 10:45:08;;;;;;;5.70;0.75;;;13.70;99.90;;;;;;5564385;25;19997;-76
2024/04/18 10:47:34;;;;;;;3.30;0.10;;;13.20;99.90;;;;;;5531057;25;20024;-77
2024/04/18 10:50:00;;;;;;;0.65;0.10;;;13.30;99.90;;;;;;5564226;25;19997;-76
2024/04/18 10:52:25;;;;;;;4.05;0.00;;;13.60;99.90;;;;;;5564117;25;19993;-76
2024/04/18 10:54:51;;;;;;;1.50;0.00;;;13.90;99.90;;;;;;5530748;25;19996;-77
2024/04/18 10:57:18;;;;;;;0.28;0.00;;;13.90;99.90;;;;;;5530887;25;20020;-77
2024/04/18 10:59:46;;;;;;;2.83;0.00;;;13.60;99.90;;;;;;5531043;25;19993;-77
2024/04/18 11:02:11;;;;;;;0.85;0.00;;;13.50;99.90;;;;;;5564086;25;19993;-77
2024/04/18 11:04:37;;;;;;;0.65;0.00;;;13.10;99.90;;;;;;5564170;25;20451;-77
2024/04/18 11:07:03;;;;;;;1.45;0.10;;;12.60;99.90;;;;;;5563705;25;20003;-77
2024/04/18 11:09:29;;;;;;;2.60;0.00;;;12.50;99.90;;;;;;5530494;25;20055;-77
2024/04/18 11:11:55;;;;;;;3.08;0.00;;;12.30;99.90;;;;;;5531073;25;20435;-77
2024/04/18 11:14:23;;;;;;;1.35;0.10;;;12.20;99.90;;;;;;5531261;25;19985;-77
2024/04/18 11:16:56;;;;;;;2.88;0.00;;;12.10;99.90;;;;;;5531211;25;19993;-77
2024/04/18 11:19:23;;;;;;;2.35;0.00;;;12.00;99.90;;;;;;5564358;25;19993;-77
2024/04/18 11:21:48;;;;;;;2.13;0.00;;;12.00;99.90;;;;;;5563966;25;20008;-77
2024/04/18 11:24:14;;;;;;;2.70;0.10;;;12.10;99.90;;;;;;5530738;25;20456;-77
2024/04/18 11:26:40;;;;;;;0.68;0.00;;;12.30;99.90;;;;;;5530560;25;19992;-77
2024/04/18 11:29:07;;;;;;;0.30;0.00;;;12.30;99.90;;;;;;5531391;25;19993;-77
2024/04/18 11:31:32;;;;;;;1.55;0.13;;;12.50;99.90;;;;;;5567539;25;19993;-77
2024/04/18 11:33:58;;;;;;;3.20;0.32;;;12.80;99.90;;;;;;5535151;25;20009;-77
2024/04/18 11:36:25;;;;;;;2.67;0.00;;;13.30;99.90;;;;;;5534757;25;20440;-77
2024/04/18 11:38:50;;;;;;;0.45;0.00;;;13.60;99.90;;;;;;5534415;25;20000;-77
2024/04/18 11:41:17;;;;;;;1.35;0.25;;;13.60;99.90;;;;;;5534616;25;20065;-77
2024/04/18 11:43:43;;;;;;;1.80;0.00;;;13.60;99.90;;;;;;5567420;25;19993;-77
2024/04/18 11:46:10;;;;;;;1.38;0.13;;;13.50;99.90;;;;;;5534271;25;19998;-77
2024/04/18 11:48:37;;;;;;;1.85;0.00;;;13.40;99.90;;;;;;5567385;25;20400;-77
2024/04/18 11:51:04;;;;;;;2.47;0.00;;;13.40;99.90;;;;;;5567460;25;19992;-77
2024/04/18 11:53:30;;;;;;;0.68;0.00;;;13.40;99.90;;;;;;5567426;25;20152;-77
2024/04/18 11:55:56;;;;;;;1.10;0.00;;;13.50;99.90;;;;;;5567388;25;19996;-77
2024/04/18 11:58:21;;;;;;;0.88;0.00;;;13.50;99.90;;;;;;5534560;25;20458;-77
2024/04/18 12:00:47;;;;;;;3.83;0.00;;;13.70;99.90;;;;;;5567519;25;20448;-77
2024/04/18 12:03:15;;;;;;;0.98;0.10;;;13.90;99.90;;;;;;5534168;25;20007;-77
2024/04/18 12:05:42;;;;;;;0.10;0.00;;;14.20;99.90;;;;;;5566636;25;20001;-77
2024/04/18 12:08:08;;;;;;;2.63;0.00;;;14.70;99.90;;;;;;5564755;25;20003;-77
2024/04/18 12:10:34;;;;;;;0.00;0.00;;;;;;;;;;5533690;25;20432;-77
2024/04/18 12:13:00;;;;;;;1.58;0.00;;;15.60;99.60;;;;;;5567141;25;19993;-77
2024/04/18 12:15:26;;;;;;;1.55;0.00;;;15.60;99.80;;;;;;5533585;25;20000;-77
2024/04/18 12:17:51;;;;;;;2.03;0.00;;;15.50;97.00;;;;;;5566905;25;20003;-77
2024/04/18 12:20:18;;;;;;;0.70;0.00;;;15.50;97.20;;;;;;5566463;25;20359;-76
2024/04/18 12:22:44;;;;;;;5.85;0.00;;;15.30;98.00;;;;;;5533465;25;20432;-77
2024/04/18 12:25:10;;;;;;;1.20;0.00;;;14.90;98.60;;;;;;5566572;25;19996;-77
2024/04/18 12:27:35;;;;;;;13.25;0.10;;;14.80;99.90;;;;;;5533113;25;20009;-77
2024/04/18 12:30:01;;;;;;;0.05;0.00;;;14.80;99.20;;;;;;5566808;25;19993;-77
2024/04/18 12:32:27;;;;;;;1.52;0.10;;;15.10;99.90;;;;;;5566624;25;20000;-77
2024/04/18 12:34:52;;;;;;;3.45;0.00;;;15.30;97.80;;;;;;5566550;25;20004;-77
2024/04/18 12:37:18;;;;;;;0.75;0.00;;;15.10;98.70;;;;;;5533390;25;19989;-77
2024/04/18 12:39:47;;;;;;;0.20;0.00;;;14.80;99.70;;;;;;5533482;25;19989;-77
2024/04/18 12:42:18;;;;;;;1.08;0.00;;;14.50;99.90;;;;;;5531975;25;20432;-77
2024/04/18 12:44:44;;;;;;;2.47;0.40;;;14.20;99.90;;;;;;5532949;25;19993;-77
2024/04/18 12:47:10;;;;;;;0.52;0.00;;;13.90;99.90;;;;;;5566168;25;20005;-77
2024/04/18 12:49:35;;;;;;;1.00;0.00;;;13.70;99.90;;;;;;5566531;25;20007;-77
2024/04/18 12:52:01;;;;;;;1.13;0.00;;;13.70;99.90;;;;;;5533524;25;20515;-77